createdAt,value
2022-10-24T00:01:56.325Z,47.85
2022-10-24T00:04:24.923Z,50.70
2022-10-24T00:06:53.159Z,35.72
2022-10-24T00:09:22.896Z,36.70
2022-10-24T00:11:51.073Z,39.47
2022-10-24T00:14:19.693Z,36.47
2022-10-24T00:16:48.015Z,36.53
2022-10-24T00:19:16.495Z,45.22
2022-10-24T00:21:44.691Z,38.63
2022-10-24T00:24:13.269Z,38.45
2022-10-24T00:26:43.174Z,29.27
2022-10-24T00:29:12.182Z,32.20
2022-10-24T00:31:40.543Z,29.88
2022-10-24T00:34:09.264Z,33.63
2022-10-24T00:36:37.667Z,35.47
2022-10-24T00:39:06.017Z,32.80
2022-10-24T00:41:36.804Z,29.58
2022-10-24T00:44:19.766Z,26.42
2022-10-24T00:46:51.766Z,49.33
2022-10-24T00:49:23.829Z,30.08
2022-10-24T00:51:57.056Z,26.50
2022-10-24T00:54:25.726Z,30.92
2022-10-24T00:57:01.555Z,34.80
2022-10-24T00:59:32.149Z,28.52
2022-10-24T01:02:00.461Z,30.58
2022-10-24T01:04:29.420Z,25.45
2022-10-24T01:07:10.262Z,28.48
2022-10-24T01:09:55.984Z,33.58
2022-10-24T01:12:31.974Z,31.48
2022-10-24T01:15:10.935Z,31.45
2022-10-24T01:17:46.130Z,25.00
2022-10-24T01:20:34.611Z,17.92
2022-10-24T01:23:11.371Z,22.00
2022-10-24T01:25:48.420Z,28.17
2022-10-24T01:28:20.103Z,30.05
2022-10-24T01:30:54.635Z,32.90
2022-10-24T01:33:28.056Z,29.50
2022-10-24T01:36:00.253Z,23.52
2022-10-24T01:38:33.685Z,24.23
2022-10-24T01:41:05.993Z,19.67
2022-10-24T01:43:40.254Z,27.17
2022-10-24T01:46:14.044Z,22.48
2022-10-24T01:48:46.837Z,21.95
2022-10-24T01:51:17.720Z,21.80
2022-10-24T01:53:47.266Z,22.10
2022-10-24T01:56:15.690Z,25.50
2022-10-24T01:58:43.961Z,24.27
2022-10-24T02:01:17.321Z,25.33
2022-10-24T02:03:51.219Z,22.85
2022-10-24T02:06:24.887Z,29.27
2022-10-24T02:08:58.479Z,34.65
2022-10-24T02:11:27.035Z,29.05
2022-10-24T02:13:58.865Z,22.63
2022-10-24T02:16:28.963Z,26.55
2022-10-24T02:18:58.355Z,25.73
2022-10-24T02:21:33.077Z,21.75
2022-10-24T02:24:07.440Z,22.23
2022-10-24T02:26:40.715Z,23.92
2022-10-24T02:29:15.235Z,26.83
2022-10-24T02:31:51.454Z,30.02
2022-10-24T02:34:21.191Z,27.20
2022-10-24T02:36:52.103Z,20.25
2022-10-24T02:39:21.221Z,23.98
2022-10-24T02:41:52.186Z,24.17
2022-10-24T02:44:21.168Z,36.50
2022-10-24T02:46:53.840Z,24.35
2022-10-24T02:49:22.366Z,22.73
2022-10-24T02:51:52.206Z,41.17
2022-10-24T02:54:20.666Z,34.08
2022-10-24T02:56:55.809Z,24.95
2022-10-24T02:59:24.403Z,25.60
2022-10-24T03:01:54.282Z,21.13
2022-10-24T03:04:22.865Z,26.63
2022-10-24T03:06:51.354Z,21.33
2022-10-24T03:09:19.503Z,26.95
2022-10-24T03:11:48.263Z,26.52
2022-10-24T03:14:16.447Z,27.33
2022-10-24T03:16:44.882Z,26.65
2022-10-24T03:19:14.514Z,25.23
2022-10-24T03:21:43.004Z,29.17
2022-10-24T03:24:11.405Z,26.08
2022-10-24T03:26:39.835Z,28.45
2022-10-24T03:29:08.085Z,25.83
2022-10-24T03:31:36.538Z,20.80
2022-10-24T03:34:04.796Z,25.15
2022-10-24T03:36:34.648Z,26.40
2022-10-24T03:39:02.974Z,23.00
2022-10-24T03:41:31.709Z,24.45
2022-10-24T03:43:59.912Z,24.58
2022-10-24T03:46:28.606Z,23.63
2022-10-24T03:48:56.771Z,22.20
2022-10-24T03:51:25.242Z,27.05
2022-10-24T03:53:55.136Z,29.38
2022-10-24T03:56:23.849Z,42.53
2022-10-24T03:58:52.319Z,24.70
2022-10-24T04:01:20.773Z,22.48
2022-10-24T04:03:49.066Z,21.70
2022-10-24T04:06:17.556Z,26.98
2022-10-24T04:08:45.747Z,27.58
2022-10-24T04:11:15.453Z,21.92
2022-10-24T04:13:43.627Z,22.35
2022-10-24T04:16:12.017Z,20.67
2022-10-24T04:18:40.185Z,20.02
2022-10-24T04:21:08.549Z,15.93
2022-10-24T04:23:40.998Z,21.17
2022-10-24T04:26:09.907Z,20.73
2022-10-24T04:28:39.416Z,16.85
2022-10-24T04:31:08.048Z,22.77
2022-10-24T04:33:36.880Z,24.65
2022-10-24T04:36:06.069Z,35.15
2022-10-24T04:38:34.547Z,27.52
2022-10-24T04:41:03.226Z,29.77
2022-10-24T04:43:31.373Z,29.08
2022-10-24T04:46:02.491Z,21.90
2022-10-24T04:48:30.902Z,18.65
2022-10-24T04:50:59.446Z,20.73
2022-10-24T04:53:27.728Z,25.67
2022-10-24T04:55:56.153Z,23.05
2022-10-24T04:58:24.352Z,21.38
2022-10-24T05:00:52.922Z,19.73
2022-10-24T05:03:23.676Z,23.83
2022-10-24T05:05:52.069Z,22.98
2022-10-24T05:08:20.358Z,22.90
2022-10-24T05:10:48.773Z,16.65
2022-10-24T05:13:17.149Z,29.52
2022-10-24T05:15:45.794Z,28.48
2022-10-24T05:18:14.155Z,22.75
2022-10-24T05:20:43.876Z,22.27
2022-10-24T05:23:12.068Z,19.30
2022-10-24T05:25:40.719Z,23.58
2022-10-24T05:28:09.055Z,24.30
2022-10-24T05:30:37.495Z,20.58
2022-10-24T05:33:05.780Z,21.98
2022-10-24T05:35:34.441Z,22.58
2022-10-24T05:38:04.471Z,22.48
2022-10-24T05:40:33.088Z,21.92
2022-10-24T05:43:01.262Z,25.80
2022-10-24T05:45:30.017Z,23.45
2022-10-24T05:47:58.225Z,18.80
2022-10-24T05:50:27.467Z,25.30
2022-10-24T05:52:55.988Z,24.50
2022-10-24T05:55:25.723Z,25.00
2022-10-24T05:57:54.273Z,29.10
2022-10-24T06:00:23.117Z,24.80
2022-10-24T06:02:51.461Z,31.70
2022-10-24T06:05:20.920Z,42.63
2022-10-24T06:07:49.428Z,24.38
2022-10-24T06:10:18.133Z,23.05
2022-10-24T06:12:48.150Z,23.00
2022-10-24T06:15:16.888Z,22.90
2022-10-24T06:17:45.043Z,19.05
2022-10-24T06:20:13.530Z,22.33
2022-10-24T06:22:42.167Z,24.50
2022-10-24T06:25:11.335Z,19.70
2022-10-24T06:27:39.802Z,22.98
2022-10-24T06:30:11.931Z,19.85
2022-10-24T06:32:43.745Z,19.45
2022-10-24T06:35:15.835Z,22.15
2022-10-24T06:37:47.246Z,20.63
2022-10-24T06:40:17.256Z,25.45
2022-10-24T06:42:45.870Z,20.98
2022-10-24T06:45:16.159Z,25.35
2022-10-24T06:47:44.863Z,20.35
2022-10-24T06:50:13.563Z,24.70
2022-10-24T06:52:41.859Z,26.20
2022-10-24T06:55:10.833Z,23.20
2022-10-24T06:57:39.031Z,27.10
2022-10-24T07:00:09.018Z,26.45
2022-10-24T07:02:38.627Z,25.35
2022-10-24T07:05:09.245Z,20.42
2022-10-24T07:07:38.115Z,28.55
2022-10-24T07:10:07.777Z,22.50
2022-10-24T07:12:35.934Z,23.17
2022-10-24T07:15:05.094Z,25.20
2022-10-24T07:17:41.318Z,25.30
2022-10-24T07:20:11.583Z,22.20
2022-10-24T07:22:40.254Z,21.42
2022-10-24T07:25:09.625Z,20.38
2022-10-24T07:27:37.958Z,48.65
2022-10-24T07:30:07.480Z,45.38
2022-10-24T07:32:36.082Z,30.67
2022-10-24T07:35:06.565Z,38.08
2022-10-24T07:37:35.082Z,31.17
2022-10-24T07:40:03.498Z,39.55
2022-10-24T07:42:31.727Z,24.50
2022-10-24T07:45:00.134Z,26.05
2022-10-24T07:47:28.319Z,30.83
2022-10-24T07:49:56.963Z,25.27
2022-10-24T07:52:26.721Z,20.17
2022-10-24T07:54:55.715Z,23.65
2022-10-24T07:57:23.914Z,23.77
2022-10-24T07:59:52.286Z,24.20
2022-10-24T08:02:20.638Z,25.50
2022-10-24T08:04:48.958Z,23.73
2022-10-24T08:07:17.219Z,23.65
2022-10-24T08:09:48.470Z,25.55
2022-10-24T08:12:16.748Z,26.48
2022-10-24T08:14:45.399Z,23.95
2022-10-24T08:17:13.849Z,25.65
2022-10-24T08:19:44.024Z,25.65
2022-10-24T08:22:12.881Z,38.22
2022-10-24T08:24:41.297Z,27.13
2022-10-24T08:27:10.907Z,18.38
2022-10-24T08:29:39.790Z,23.98
2022-10-24T08:32:08.142Z,22.25
2022-10-24T08:34:38.431Z,23.42
2022-10-24T08:37:06.957Z,27.88
2022-10-24T08:39:35.371Z,29.10
2022-10-24T08:42:06.257Z,18.52
2022-10-24T08:44:40.043Z,20.88
2022-10-24T08:47:17.303Z,22.38
2022-10-24T08:49:51.046Z,23.60
2022-10-24T08:52:28.046Z,21.33
2022-10-24T08:54:57.587Z,31.13
2022-10-24T08:57:29.680Z,27.17
2022-10-24T09:00:03.470Z,23.98
2022-10-24T09:02:34.741Z,24.40
2022-10-24T09:05:10.640Z,23.27
2022-10-24T09:07:39.240Z,29.25
2022-10-24T09:10:16.668Z,27.13
2022-10-24T09:12:44.811Z,24.05
2022-10-24T09:15:29.298Z,21.10
2022-10-24T09:17:59.320Z,24.05
2022-10-24T09:20:30.209Z,22.38
2022-10-24T09:23:02.160Z,18.30
2022-10-24T09:25:33.314Z,26.13
2022-10-24T09:28:04.554Z,23.52
2022-10-24T09:30:36.396Z,30.20
2022-10-24T09:33:12.831Z,19.88
2022-10-24T09:35:41.663Z,26.48
2022-10-24T09:38:33.571Z,24.70
2022-10-24T09:41:05.935Z,21.60
2022-10-24T09:43:40.031Z,13.77
2022-10-24T09:46:11.751Z,25.38
2022-10-24T09:48:55.527Z,21.27
2022-10-24T09:51:32.303Z,22.27
2022-10-24T09:54:07.550Z,25.17
2022-10-24T09:56:41.022Z,40.33
2022-10-24T09:59:31.937Z,26.00
2022-10-24T10:02:23.200Z,28.80
2022-10-24T10:05:16.012Z,24.45
2022-10-24T10:07:48.423Z,20.80
2022-10-24T10:10:41.485Z,22.77
2022-10-24T10:13:23.552Z,25.40
2022-10-24T10:15:54.641Z,24.23
2022-10-24T10:18:42.381Z,27.98
2022-10-24T10:21:13.772Z,23.17
2022-10-24T10:23:45.043Z,19.42
2022-10-24T10:26:23.647Z,19.83
2022-10-24T10:28:59.399Z,24.90
2022-10-24T10:31:35.417Z,22.65
2022-10-24T10:34:21.474Z,19.40
2022-10-24T10:37:07.949Z,20.83
2022-10-24T10:39:57.944Z,19.30
2022-10-24T10:42:34.820Z,22.50
2022-10-24T10:45:19.339Z,18.67
2022-10-24T10:48:00.918Z,18.17
2022-10-24T10:50:37.618Z,17.35
2022-10-24T10:53:21.513Z,20.30
2022-10-24T10:56:00.237Z,26.05
2022-10-24T11:01:16.807Z,21.92
2022-10-24T11:03:50.525Z,29.23
2022-10-24T11:06:35.463Z,20.73
2022-10-24T11:09:30.058Z,18.77
2022-10-24T11:12:06.418Z,21.38
2022-10-24T11:14:37.496Z,26.83
2022-10-24T11:17:13.886Z,19.05
2022-10-24T11:19:49.469Z,30.38
2022-10-24T11:22:24.377Z,19.65
2022-10-24T11:24:58.730Z,20.52
2022-10-24T11:27:32.593Z,20.38
2022-10-24T11:30:09.857Z,24.35
2022-10-24T11:32:42.132Z,16.92
2022-10-24T11:35:22.334Z,21.85
2022-10-24T11:37:57.094Z,14.63
2022-10-24T11:43:03.023Z,22.85
2022-10-24T11:45:39.773Z,18.40
2022-10-24T11:48:16.046Z,25.45
2022-10-24T11:50:49.296Z,19.50
2022-10-24T11:53:48.286Z,17.65
2022-10-24T11:56:23.586Z,13.15
2022-10-24T11:58:59.603Z,12.95
2022-10-24T12:02:16.578Z,11.75
2022-10-24T12:05:02.177Z,12.15
2022-10-24T12:07:53.950Z,12.40
2022-10-24T12:10:42.118Z,11.60
2022-10-24T12:13:26.143Z,13.48
2022-10-24T12:16:00.912Z,14.43
2022-10-24T12:18:33.345Z,13.98
2022-10-24T12:21:06.064Z,64.93
2022-10-24T12:23:34.832Z,38.42
2022-10-24T12:26:07.818Z,19.77
2022-10-24T12:28:38.155Z,20.08
2022-10-24T12:31:13.062Z,17.45
2022-10-24T12:33:42.265Z,12.82
2022-10-24T12:36:11.358Z,11.02
2022-10-24T12:39:09.940Z,8.25
2022-10-24T12:41:42.674Z,13.38
2022-10-24T12:44:41.163Z,15.60
2022-10-24T12:47:40.825Z,13.00
2022-10-24T12:50:55.243Z,14.88
2022-10-24T12:54:00.744Z,8.50
2022-10-24T12:56:31.570Z,13.77
2022-10-24T12:59:18.151Z,11.15
2022-10-24T13:01:47.791Z,12.95
2022-10-24T13:04:53.375Z,14.80
2022-10-24T13:07:41.603Z,17.45
2022-10-24T13:10:31.976Z,16.17
2022-10-24T13:13:27.491Z,22.55
2022-10-24T13:16:04.217Z,20.50
2022-10-24T13:18:44.924Z,20.70
2022-10-24T13:21:24.312Z,11.57
2022-10-24T13:23:53.197Z,7.88
2022-10-24T13:26:38.078Z,10.65
2022-10-24T13:29:12.479Z,9.48
2022-10-24T13:31:48.091Z,10.38
2022-10-24T13:34:30.276Z,17.70
2022-10-24T13:37:07.201Z,15.25
2022-10-24T13:39:41.327Z,14.15
2022-10-24T13:42:27.775Z,13.23
2022-10-24T13:45:00.670Z,12.27
2022-10-24T13:47:37.211Z,14.55
2022-10-24T13:50:12.709Z,14.13
2022-10-24T13:52:50.069Z,15.50
2022-10-24T13:55:24.635Z,14.55
2022-10-24T13:57:56.657Z,9.35
2022-10-24T14:00:27.868Z,11.10
2022-10-24T14:02:59.822Z,12.38
2022-10-24T14:05:33.515Z,12.93
2022-10-24T14:08:02.928Z,17.38
2022-10-24T14:10:32.029Z,10.48
2022-10-24T14:13:01.330Z,15.07
2022-10-24T14:15:32.377Z,11.65
2022-10-24T14:18:04.726Z,14.70
2022-10-24T14:20:35.322Z,9.30
2022-10-24T14:23:04.123Z,17.60
2022-10-24T14:25:36.502Z,14.93
2022-10-24T14:28:15.391Z,12.93
2022-10-24T14:30:54.512Z,13.07
2022-10-24T14:33:26.783Z,11.40
2022-10-24T14:35:57.965Z,13.50
2022-10-24T14:38:28.059Z,12.52
2022-10-24T14:41:08.304Z,14.70
2022-10-24T14:43:41.959Z,15.65
2022-10-24T14:46:32.254Z,14.27
2022-10-24T14:49:21.367Z,17.98
2022-10-24T14:54:23.453Z,14.30
2022-10-24T14:56:54.404Z,13.60
2022-10-24T14:59:27.163Z,15.98
2022-10-24T15:01:57.443Z,12.68
2022-10-24T15:04:37.466Z,15.63
2022-10-24T15:07:16.256Z,11.90
2022-10-24T15:09:56.222Z,21.25
2022-10-24T15:12:38.171Z,17.30
2022-10-24T15:15:27.661Z,15.15
2022-10-24T15:18:00.516Z,13.50
2022-10-24T15:20:35.828Z,14.43
2022-10-24T15:23:04.874Z,10.90
2022-10-24T15:25:38.049Z,16.88
2022-10-24T15:28:08.928Z,21.17
2022-10-24T15:30:38.672Z,14.57
2022-10-24T15:33:07.665Z,18.10
2022-10-24T15:35:41.501Z,17.38
2022-10-24T15:38:15.249Z,18.83
2022-10-24T15:40:45.665Z,17.42
2022-10-24T15:43:15.071Z,22.45
2022-10-24T15:45:44.099Z,17.20
2022-10-24T15:48:12.379Z,17.90
2022-10-24T15:50:46.601Z,20.98
2022-10-24T15:53:18.486Z,23.33
2022-10-24T15:55:46.862Z,35.80
2022-10-24T15:58:16.791Z,27.83
2022-10-24T16:00:46.183Z,19.80
2022-10-24T16:03:17.723Z,24.73
2022-10-24T16:05:52.258Z,22.65
2022-10-24T16:08:21.549Z,24.10
2022-10-24T16:10:51.566Z,22.48
2022-10-24T16:13:21.983Z,26.95
2022-10-24T16:15:50.819Z,27.08
2022-10-24T16:18:19.273Z,28.88
2022-10-24T16:20:49.269Z,31.25
2022-10-24T16:23:17.785Z,20.10
2022-10-24T16:25:46.580Z,18.90
2022-10-24T16:28:15.721Z,15.20
2022-10-24T16:30:44.707Z,19.02
2022-10-24T16:33:13.178Z,21.25
2022-10-24T16:35:42.190Z,23.75
2022-10-24T16:38:12.505Z,19.20
2022-10-24T16:40:43.052Z,20.00
2022-10-24T16:43:13.225Z,21.83
2022-10-24T16:45:42.734Z,25.08
2022-10-24T16:48:11.335Z,15.88
2022-10-24T16:50:43.942Z,22.00
2022-10-24T16:53:14.572Z,25.77
2022-10-24T16:55:48.421Z,28.20
2022-10-24T16:58:16.945Z,22.40
2022-10-24T17:00:46.011Z,30.70
2022-10-24T17:03:29.700Z,25.55
2022-10-24T17:05:58.641Z,26.38
2022-10-24T17:08:28.447Z,19.60
2022-10-24T17:10:57.885Z,26.23
2022-10-24T17:13:26.852Z,35.60
2022-10-24T17:15:56.247Z,26.60
2022-10-24T17:18:25.536Z,26.70
2022-10-24T17:21:00.079Z,40.45
2022-10-24T17:23:30.515Z,23.90
2022-10-24T17:26:00.159Z,23.90
2022-10-24T17:28:33.141Z,18.60
2022-10-24T17:31:02.071Z,19.00
2022-10-24T17:33:30.815Z,19.35
2022-10-24T17:35:59.788Z,20.85
2022-10-24T17:38:39.335Z,22.85
2022-10-24T17:41:18.144Z,19.75
2022-10-24T17:43:46.820Z,25.38
2022-10-24T17:46:15.876Z,19.23
2022-10-24T17:48:44.446Z,22.55
2022-10-24T17:51:14.995Z,20.75
2022-10-24T17:53:44.884Z,15.80
2022-10-24T17:56:13.748Z,15.68
2022-10-24T17:58:42.350Z,18.60
2022-10-24T18:01:12.755Z,16.65
2022-10-24T18:03:44.479Z,19.15
2022-10-24T18:06:14.377Z,18.15
2022-10-24T18:08:44.839Z,21.13
2022-10-24T18:11:14.839Z,18.27
2022-10-24T18:13:43.839Z,15.65
2022-10-24T18:16:14.983Z,14.77
2022-10-24T18:18:44.765Z,18.85
2022-10-24T18:23:52.788Z,20.63
2022-10-24T18:26:24.269Z,17.73
2022-10-24T18:28:55.598Z,23.13
2022-10-24T18:31:29.019Z,32.88
2022-10-24T18:34:07.490Z,30.33
2022-10-24T18:36:38.262Z,20.42
2022-10-24T18:39:08.924Z,29.20
2022-10-24T18:41:47.927Z,18.63
2022-10-24T18:44:28.882Z,19.10
2022-10-24T18:47:02.518Z,21.35
2022-10-24T18:49:33.718Z,18.38
2022-10-24T18:52:17.300Z,15.30
2022-10-24T18:54:59.110Z,18.13
2022-10-24T18:57:31.254Z,13.10
2022-10-24T19:00:01.888Z,17.40
2022-10-24T19:02:40.532Z,22.38
2022-10-24T19:05:18.690Z,25.08
2022-10-24T19:07:50.017Z,29.23
2022-10-24T19:10:24.500Z,21.52
2022-10-24T19:12:57.442Z,23.23
2022-10-24T19:15:28.064Z,22.65
2022-10-24T19:17:58.550Z,23.92
2022-10-24T19:20:32.354Z,24.48
2022-10-24T19:23:05.128Z,20.10
2022-10-24T19:25:36.325Z,17.38
2022-10-24T19:28:06.353Z,16.88
2022-10-24T19:30:37.611Z,21.35
2022-10-24T19:33:08.170Z,17.05
2022-10-24T19:35:38.501Z,13.02
2022-10-24T19:38:08.928Z,21.25
2022-10-24T19:40:46.944Z,14.15
2022-10-24T19:43:17.395Z,19.98
2022-10-24T19:45:50.364Z,23.67
2022-10-24T19:48:33.287Z,21.55
2022-10-24T19:51:06.503Z,25.02
2022-10-24T19:53:38.595Z,19.45
2022-10-24T19:56:11.670Z,24.35
2022-10-24T19:58:42.011Z,21.63
2022-10-24T20:01:12.912Z,23.27
2022-10-24T20:03:43.159Z,19.08
2022-10-24T20:06:12.339Z,24.38
2022-10-24T20:08:42.877Z,24.83
2022-10-24T20:11:12.485Z,21.73
2022-10-24T20:13:40.972Z,16.15
2022-10-24T20:16:10.402Z,18.60
2022-10-24T20:21:11.464Z,20.67
2022-10-24T20:23:41.567Z,19.95
2022-10-24T20:26:13.229Z,19.75
2022-10-24T20:28:44.096Z,14.55
2022-10-24T20:31:20.714Z,17.70
2022-10-24T20:33:49.406Z,17.30
2022-10-24T20:36:18.316Z,17.58
2022-10-24T20:38:46.796Z,16.30
2022-10-24T20:41:16.537Z,17.60
2022-10-24T20:43:44.996Z,13.65
2022-10-24T20:46:13.275Z,17.15
2022-10-24T20:48:42.420Z,22.17
2022-10-24T20:51:15.066Z,17.48
2022-10-24T20:53:44.160Z,21.35
2022-10-24T20:56:14.699Z,21.85
2022-10-24T20:58:45.783Z,21.88
2022-10-24T21:01:16.460Z,24.45
2022-10-24T21:03:45.859Z,17.17
2022-10-24T21:06:18.951Z,21.45
2022-10-24T21:08:49.220Z,23.02
2022-10-24T21:11:24.494Z,16.25
2022-10-24T21:13:56.142Z,14.65
2022-10-24T21:16:25.180Z,19.88
2022-10-24T21:18:53.901Z,16.00
2022-10-24T21:21:22.883Z,19.20
2022-10-24T21:23:52.984Z,18.25
2022-10-24T21:26:21.908Z,16.02
2022-10-24T21:28:54.027Z,15.63
2022-10-24T21:31:29.174Z,16.80
2022-10-24T21:33:57.864Z,17.48
2022-10-24T21:36:26.217Z,15.75
2022-10-24T21:38:56.350Z,18.70
2022-10-24T21:41:25.325Z,14.90
2022-10-24T21:43:54.819Z,14.85
2022-10-24T21:46:24.961Z,16.80
2022-10-24T21:48:56.055Z,11.90
2022-10-24T21:51:26.571Z,15.48
2022-10-24T21:53:57.247Z,13.48
2022-10-24T21:56:27.329Z,13.43
2022-10-24T21:58:59.756Z,9.52
2022-10-24T22:01:29.711Z,15.63
2022-10-24T22:04:00.461Z,16.45
2022-10-24T22:06:30.035Z,12.35
2022-10-24T22:08:58.577Z,12.00
2022-10-24T22:11:29.197Z,14.10
2022-10-24T22:13:58.692Z,21.52
2022-10-24T22:16:30.077Z,15.82
2022-10-24T22:19:02.806Z,14.10
2022-10-24T22:21:32.919Z,13.95
2022-10-24T22:24:04.280Z,16.55
2022-10-24T22:26:33.457Z,16.63
2022-10-24T22:29:02.068Z,18.20
2022-10-24T22:31:31.684Z,13.10
2022-10-24T22:34:02.002Z,18.52
2022-10-24T22:36:43.185Z,14.27
2022-10-24T22:39:15.403Z,11.43
2022-10-24T22:41:44.346Z,15.70
2022-10-24T22:44:15.258Z,12.75
2022-10-24T22:47:02.651Z,16.48
2022-10-24T22:49:39.961Z,16.52
2022-10-24T22:52:11.564Z,18.10
2022-10-24T22:54:40.824Z,11.23
2022-10-24T22:57:09.936Z,19.52
2022-10-24T22:59:39.150Z,12.45
2022-10-24T23:02:20.599Z,12.70
2022-10-24T23:05:01.163Z,21.77
2022-10-24T23:07:37.156Z,17.90
2022-10-24T23:10:07.520Z,15.65
2022-10-24T23:12:36.694Z,16.50
2022-10-24T23:15:06.311Z,12.00
2022-10-24T23:17:35.311Z,15.18
2022-10-24T23:20:14.511Z,17.08
2022-10-24T23:22:48.460Z,13.52
2022-10-24T23:25:23.453Z,11.15
2022-10-24T23:27:58.524Z,11.52
2022-10-24T23:30:27.546Z,20.23
2022-10-24T23:32:56.309Z,14.68
2022-10-24T23:35:26.732Z,12.73
2022-10-24T23:37:55.648Z,16.95
2022-10-24T23:40:32.632Z,15.10
2022-10-24T23:43:01.788Z,10.77
2022-10-24T23:45:36.528Z,12.75
2022-10-24T23:48:22.267Z,13.07
2022-10-24T23:51:00.420Z,19.25
2022-10-24T23:53:38.907Z,12.80
2022-10-24T23:56:10.083Z,11.77
2022-10-24T23:58:38.320Z,13.05
